PWSweather.com
Personal Weather Stations
Station Observations
N3SME
Betz Creek, Wilmington Island, Savannah, GA 31410

Betz Creek, Wilmington IslandSavannah, GA 31410

Lat: 32.023021, Lon: -80.959452

Elevation: 15

Station Type: Ambient

Latest ConditionsUpdated 12:00:03 PM EST Saturday, Feb 13, 2016
Currently Today's Max Today's Min Today's Average
Temperature 51.2°F10.7°C 56.2°F13.4°C 40.9°F4.9°C 46.7°F8.2°C
Dew Point -1.5°F-18.6°C 31.6°F-0.2°C -3.7°F-19.8°C 14.2°F-9.9°C
Winds 6.9 mph N11.1 kmh N 10.5 mph NW16.9 kmh NW - 3.1 mph 5.0 kmh
Wind Gusts 21.0 mph33.8 kmh 29.8 mph48.0 kmh - -
Humidity 11% 46% 11% 29%
Pressure 30.23 in1023.7 mb 30.25 in1024.4 mb 30.02 in1016.6 mb -
Hour Temp Dew Point Humidity Winds Wind Gusts Pressure Precip Precip Rate Daily Precip Total
12:00 PM 51.2°F10.7°C -1.5°F-18.6°C 11% 6.9 mph N11.1 kmh N 21.0 mph33.8 kmh 30.23 in1023.7 mb 0.00 in0.0 mm 0.00 in0.0 mm 0.00 in0.0 mm
11:45 AM 51.7°F10.9°C -1.1°F-18.4°C 11% 3.6 mph NNW5.8 kmh NNW 15.7 mph25.3 kmh 30.23 in1023.7 mb 0.00 in0.0 mm 0.00 in0.0 mm 0.00 in0.0 mm
11:30 AM 51.2°F10.7°C -1.5°F-18.6°C 11% 8.7 mph N14.0 kmh N 17.4 mph28.0 kmh 30.23 in1023.7 mb 0.00 in0.0 mm 0.00 in0.0 mm 0.00 in0.0 mm
11:15 AM 50.4°F10.2°C -2.1°F-18.9°C 11% 8.7 mph NW14.0 kmh NW 21.0 mph33.8 kmh 30.24 in1024.0 mb 0.00 in0.0 mm 0.00 in0.0 mm 0.00 in0.0 mm
11:00 AM 49.9°F9.9°C -2.5°F-19.2°C 11% 6.9 mph NNW11.1 kmh NNW 21.0 mph33.8 kmh 30.24 in1024.0 mb 0.00 in0.0 mm 0.00 in0.0 mm 0.00 in0.0 mm
10:45 AM 49.5°F9.7°C -2.8°F-19.3°C 11% 5.1 mph NNW8.2 kmh NNW 19.2 mph30.9 kmh 30.25 in1024.4 mb 0.00 in0.0 mm 0.00 in0.0 mm 0.00 in0.0 mm
10:30 AM 48.5°F9.2°C -3.6°F-19.8°C 11% 5.1 mph N8.2 kmh N 24.6 mph39.6 kmh 30.24 in1024.0 mb 0.00 in0.0 mm 0.00 in0.0 mm 0.00 in0.0 mm
10:15 AM 48.3°F9.1°C -3.7°F-19.8°C 11% 6.9 mph NE11.1 kmh NE 29.8 mph48.0 kmh 30.24 in1024.0 mb 0.00 in0.0 mm 0.00 in0.0 mm 0.00 in0.0 mm
10:00 AM 47.4°F8.6°C -2.6°F-19.2°C 12% Calm Calm 17.4 mph28.0 kmh 30.24 in1024.0 mb 0.00 in0.0 mm 0.00 in0.0 mm 0.00 in0.0 mm
09:45 AM 45.2°F7.3°C -1.1°F-18.4°C 14% 1.8 mph NNW2.9 kmh NNW 19.2 mph30.9 kmh 30.23 in1023.7 mb 0.00 in0.0 mm 0.00 in0.0 mm 0.00 in0.0 mm
09:30 AM 44.3°F6.8°C 1.0°F-17.2°C 16% 6.9 mph N11.1 kmh N 22.8 mph36.7 kmh 30.23 in1023.7 mb 0.00 in0.0 mm 0.00 in0.0 mm 0.00 in0.0 mm
09:15 AM 44.1°F6.7°C 3.4°F-15.9°C 18% 10.5 mph NW16.9 kmh NW 24.6 mph39.6 kmh 30.23 in1023.7 mb 0.00 in0.0 mm 0.00 in0.0 mm 0.00 in0.0 mm
09:00 AM 44.1°F6.7°C 5.7°F-14.6°C 20% 5.1 mph N8.2 kmh N 19.2 mph30.9 kmh 30.22 in1023.4 mb 0.00 in0.0 mm 0.00 in0.0 mm 0.00 in0.0 mm
08:45 AM 43.6°F6.4°C 9.2°F-12.7°C 24% 3.6 mph WNW5.8 kmh WNW 29.8 mph48.0 kmh 30.22 in1023.4 mb 0.00 in0.0 mm 0.00 in0.0 mm 0.00 in0.0 mm
08:30 AM 42.7°F5.9°C 10.2°F-12.1°C 26% 6.9 mph NW11.1 kmh NW 19.2 mph30.9 kmh 30.21 in1023.0 mb 0.00 in0.0 mm 0.00 in0.0 mm 0.00 in0.0 mm
08:15 AM 41.8°F5.4°C 12.7°F-10.7°C 30% 3.6 mph NNW5.8 kmh NNW 19.2 mph30.9 kmh 30.21 in1023.0 mb 0.00 in0.0 mm 0.00 in0.0 mm 0.00 in0.0 mm
08:00 AM 41.3°F5.2°C 12.9°F-10.6°C 31% 3.6 mph NNW5.8 kmh NNW 19.2 mph30.9 kmh 30.20 in1022.7 mb 0.00 in0.0 mm 0.00 in0.0 mm 0.00 in0.0 mm
07:45 AM 40.9°F4.9°C 13.3°F-10.4°C 32% Calm Calm 12.3 mph19.8 kmh 30.19 in1022.4 mb 0.00 in0.0 mm 0.00 in0.0 mm 0.00 in0.0 mm
07:30 AM 40.9°F4.9°C 14.0°F-10.0°C 33% 5.1 mph NW8.2 kmh NW 14.1 mph22.7 kmh 30.19 in1022.4 mb 0.00 in0.0 mm 0.00 in0.0 mm 0.00 in0.0 mm
07:15 AM 41.1°F5.1°C 13.5°F-10.3°C 32% 3.6 mph NW5.8 kmh NW 17.4 mph28.0 kmh 30.18 in1022.0 mb 0.00 in0.0 mm 0.00 in0.0 mm 0.00 in0.0 mm
07:00 AM 41.6°F5.3°C 13.3°F-10.4°C 31% 1.8 mph NW2.9 kmh NW 15.7 mph25.3 kmh 30.17 in1021.7 mb 0.00 in0.0 mm 0.00 in0.0 mm 0.00 in0.0 mm
06:45 AM 42.0°F5.6°C 13.6°F-10.2°C 31% 3.6 mph WNW5.8 kmh WNW 22.8 mph36.7 kmh 30.17 in1021.7 mb 0.00 in0.0 mm 0.00 in0.0 mm 0.00 in0.0 mm
06:30 AM 42.0°F5.6°C 15.0°F-9.4°C 33% 1.8 mph WNW2.9 kmh WNW 21.0 mph33.8 kmh 30.16 in1021.3 mb 0.00 in0.0 mm 0.00 in0.0 mm 0.00 in0.0 mm
06:15 AM 42.2°F5.7°C 16.5°F-8.6°C 35% Calm Calm 8.7 mph14.0 kmh 30.14 in1020.7 mb 0.00 in0.0 mm 0.00 in0.0 mm 0.00 in0.0 mm
06:00 AM 42.5°F5.8°C 16.2°F-8.8°C 34% 3.6 mph W5.8 kmh W 8.7 mph14.0 kmh 30.13 in1020.3 mb 0.00 in0.0 mm 0.00 in0.0 mm 0.00 in0.0 mm
05:45 AM 42.9°F6.1°C 15.1°F-9.4°C 32% Calm Calm 12.3 mph19.8 kmh 30.12 in1020.0 mb 0.00 in0.0 mm 0.00 in0.0 mm 0.00 in0.0 mm
05:30 AM 43.4°F6.3°C 14.8°F-9.6°C 31% Calm Calm 10.5 mph16.9 kmh 30.11 in1019.6 mb 0.00 in0.0 mm 0.00 in0.0 mm 0.00 in0.0 mm
05:15 AM 43.8°F6.6°C 14.4°F-9.8°C 30% 6.9 mph NW11.1 kmh NW 17.4 mph28.0 kmh 30.10 in1019.3 mb 0.00 in0.0 mm 0.00 in0.0 mm 0.00 in0.0 mm
05:00 AM 44.1°F6.7°C 15.5°F-9.2°C 31% 1.8 mph WNW2.9 kmh WNW 19.2 mph30.9 kmh 30.10 in1019.3 mb 0.00 in0.0 mm 0.00 in0.0 mm 0.00 in0.0 mm
04:45 AM 44.5°F6.9°C 16.5°F-8.6°C 32% Calm Calm 21.0 mph33.8 kmh 30.10 in1019.3 mb 0.00 in0.0 mm 0.00 in0.0 mm 0.00 in0.0 mm
04:30 AM 44.9°F7.2°C 18.2°F-7.7°C 34% 6.9 mph WNW11.1 kmh WNW 17.4 mph28.0 kmh 30.09 in1019.0 mb 0.00 in0.0 mm 0.00 in0.0 mm 0.00 in0.0 mm
04:15 AM 44.9°F7.2°C 18.9°F-7.3°C 35% Calm Calm 8.7 mph14.0 kmh 30.09 in1019.0 mb 0.00 in0.0 mm 0.00 in0.0 mm 0.00 in0.0 mm
04:00 AM 45.0°F7.2°C 19.7°F-6.8°C 36% Calm Calm 6.9 mph11.1 kmh 30.08 in1018.6 mb 0.00 in0.0 mm 0.00 in0.0 mm 0.00 in0.0 mm
03:45 AM 45.2°F7.3°C 20.5°F-6.4°C 37% 1.8 mph W2.9 kmh W 8.7 mph14.0 kmh 30.08 in1018.6 mb 0.00 in0.0 mm 0.00 in0.0 mm 0.00 in0.0 mm
03:30 AM 45.6°F7.6°C 22.1°F-5.5°C 39% Calm Calm 5.1 mph8.2 kmh 30.07 in1018.3 mb 0.00 in0.0 mm 0.00 in0.0 mm 0.00 in0.0 mm
03:15 AM 46.3°F7.9°C 22.1°F-5.5°C 38% Calm Calm 3.6 mph5.8 kmh 30.07 in1018.3 mb 0.00 in0.0 mm 0.00 in0.0 mm 0.00 in0.0 mm
03:00 AM 47.4°F8.6°C 21.8°F-5.7°C 36% Calm Calm 5.1 mph8.2 kmh 30.07 in1018.3 mb 0.00 in0.0 mm 0.00 in0.0 mm 0.00 in0.0 mm
02:45 AM 48.1°F8.9°C 21.8°F-5.7°C 35% Calm Calm 8.7 mph14.0 kmh 30.06 in1017.9 mb 0.00 in0.0 mm 0.00 in0.0 mm 0.00 in0.0 mm
02:30 AM 48.8°F9.3°C 21.7°F-5.7°C 34% Calm Calm 10.5 mph16.9 kmh 30.06 in1017.9 mb 0.00 in0.0 mm 0.00 in0.0 mm 0.00 in0.0 mm
02:15 AM 49.5°F9.7°C 23.0°F-5.0°C 35% 1.8 mph W2.9 kmh W 8.7 mph14.0 kmh 30.06 in1017.9 mb 0.00 in0.0 mm 0.00 in0.0 mm 0.00 in0.0 mm
02:00 AM 50.1°F10.1°C 24.2°F-4.3°C 36% Calm Calm 14.1 mph22.7 kmh 30.06 in1017.9 mb 0.00 in0.0 mm 0.00 in0.0 mm 0.00 in0.0 mm
01:45 AM 50.8°F10.4°C 26.1°F-3.3°C 38% 1.8 mph NW2.9 kmh NW 24.6 mph39.6 kmh 30.06 in1017.9 mb 0.00 in0.0 mm 0.00 in0.0 mm 0.00 in0.0 mm
01:30 AM 51.3°F10.7°C 28.4°F-2.0°C 41% 8.7 mph NW14.0 kmh NW 21.0 mph33.8 kmh 30.05 in1017.6 mb 0.00 in0.0 mm 0.00 in0.0 mm 0.00 in0.0 mm
01:15 AM 51.2°F10.7°C 31.1°F-0.5°C 46% 1.8 mph WSW2.9 kmh WSW 5.1 mph8.2 kmh 30.05 in1017.6 mb 0.00 in0.0 mm 0.00 in0.0 mm 0.00 in0.0 mm
01:00 AM 52.1°F11.2°C 31.4°F-0.3°C 45% Calm Calm 6.9 mph11.1 kmh 30.04 in1017.3 mb 0.00 in0.0 mm 0.00 in0.0 mm 0.00 in0.0 mm
12:45 AM 53.0°F11.7°C 31.6°F-0.2°C 44% Calm Calm 8.7 mph14.0 kmh 30.03 in1016.9 mb 0.00 in0.0 mm 0.00 in0.0 mm 0.00 in0.0 mm
12:30 AM 54.0°F12.2°C 30.9°F-0.6°C 41% 1.8 mph NNE2.9 kmh NNE 6.9 mph11.1 kmh 30.03 in1016.9 mb 0.00 in0.0 mm 0.00 in0.0 mm 0.00 in0.0 mm
12:15 AM 55.3°F12.9°C 30.1°F-1.1°C 38% 3.6 mph NNW5.8 kmh NNW 21.0 mph33.8 kmh 30.03 in1016.9 mb 0.00 in0.0 mm 0.00 in0.0 mm 0.00 in0.0 mm
12:00 AM 56.2°F13.4°C 27.5°F-2.5°C 33% Calm Calm 14.1 mph22.7 kmh 30.02 in1016.6 mb 0.00 in0.0 mm 0.00 in0.0 mm 0.00 in0.0 mm